Time;durP1;ratioP1;P1;durP2;ratioP2;P2;SDS_P1;SDS_P2;PMS_P1;PMS_P2;Temp;Humidity;BMP_temperature;BMP_pressure;BME280_temperature;BME280_humidity;BME280_pressure;Samples;Min_cycle;Max_cycle;Signal;HPM_P1;HPM_P2
2022/11/10 00:00:38;;;;;;;43.20;28.50;;;;;;;18.07;49.90;101627.29;101248;1346;61419;-85
2022/11/10 00:03:05;;;;;;;39.50;26.90;;;;;;;18.07;49.79;101626.24;101100;1347;61538;-85
2022/11/10 00:05:30;;;;;;;40.90;28.70;;;;;;;18.07;49.90;101624.81;101237;1334;61332;-84
2022/11/10 00:07:56;;;;;;;41.20;28.00;;;;;;;18.07;49.88;101620.89;101265;1342;61605;-84
2022/11/10 00:10:22;;;;;;;40.80;29.00;;;;;;;18.07;49.81;101616.98;101283;1349;61605;-85
2022/11/10 00:12:47;;;;;;;40.10;27.70;;;;;;;18.07;49.75;101618.41;101087;1348;61298;-85
2022/11/10 00:18:01;;;;;;;40.90;29.10;;;;;;;18.06;49.72;101618.60;101406;1344;61423;-85
2022/11/10 00:20:26;;;;;;;42.40;28.30;;;;;;;18.06;49.79;101618.45;101424;1341;71603;-85
2022/11/10 00:22:53;;;;;;;40.80;27.90;;;;;;;18.06;49.82;101622.01;101438;1341;61306;-86
2022/11/10 00:25:18;;;;;;;40.30;28.60;;;;;;;18.06;49.89;101620.58;101475;1345;61531;-85
2022/11/10 00:27:44;;;;;;;41.00;28.40;;;;;;;18.06;49.68;101620.40;101533;1336;61344;-85
2022/11/10 00:30:10;;;;;;;38.90;28.10;;;;;;;18.06;49.78;101617.21;101828;1331;61336;-85
2022/11/10 00:32:36;;;;;;;40.90;28.20;;;;;;;18.06;49.83;101618.11;101789;1335;61419;-85
2022/11/10 00:35:01;;;;;;;40.70;29.20;;;;;;;18.06;49.84;101614.88;101809;1332;61402;-84
2022/11/10 00:37:27;;;;;;;44.90;29.60;;;;;;;18.06;49.81;101614.72;101817;1331;61423;-85
2022/11/10 00:39:52;;;;;;;40.40;29.10;;;;;;;18.06;49.83;101610.62;101840;1329;61441;-85
2022/11/10 00:42:18;;;;;;;39.40;28.00;;;;;;;18.06;49.83;101609.90;101833;1331;61323;-84
2022/11/10 00:44:43;;;;;;;43.70;29.20;;;;;;;18.05;49.80;101603.69;101795;1331;61330;-85
2022/11/10 00:47:09;;;;;;;41.60;29.40;;;;;;;18.05;49.75;101603.33;101814;1332;61321;-84
2022/11/10 00:49:34;;;;;;;39.80;28.80;;;;;;;18.06;49.79;101602.42;101830;1338;61165;-85
2022/11/10 00:52:00;;;;;;;44.00;29.10;;;;;;;18.05;49.74;101598.17;101864;1328;61358;-84
2022/11/10 00:54:25;;;;;;;41.50;29.70;;;;;;;18.05;49.73;101598.54;101819;1338;61288;-85
2022/11/10 00:56:51;;;;;;;44.10;29.50;;;;;;;18.05;49.85;101596.93;101799;1332;61344;-85
2022/11/10 00:59:16;;;;;;;43.80;30.60;;;;;;;18.05;49.66;101595.15;101872;1324;62209;-85
2022/11/10 01:01:42;;;;;;;41.60;29.20;;;;;;;18.06;49.73;101594.25;101870;1335;61431;-85
2022/11/10 01:04:07;;;;;;;42.50;30.20;;;;;;;18.05;49.71;101597.10;101843;1332;61293;-84
2022/11/10 01:06:33;;;;;;;40.10;27.70;;;;;;;18.05;49.70;101597.11;101824;1336;61280;-85
2022/11/10 01:08:58;;;;;;;43.90;29.60;;;;;;;18.05;49.66;101595.67;101834;1331;61359;-85
2022/11/10 01:11:26;;;;;;;44.10;30.10;;;;;;;18.05;49.53;101594.44;101884;1339;61296;-85
2022/11/10 01:13:52;;;;;;;42.50;29.00;;;;;;;18.05;49.67;101598.17;101831;1338;61309;-85
2022/11/10 01:16:23;;;;;;;41.40;28.40;;;;;;;18.05;49.74;101595.16;101823;1334;61451;-85
2022/11/10 01:18:50;;;;;;;41.70;28.70;;;;;;;18.05;49.69;101593.74;101826;1336;72458;-85
2022/11/10 01:21:15;;;;;;;46.30;30.30;;;;;;;18.05;49.69;101595.89;101732;1331;75050;-85
2022/11/10 01:23:41;;;;;;;43.10;29.30;;;;;;;18.05;49.72;101597.28;101849;1332;61461;-85
2022/11/10 01:26:07;;;;;;;43.80;31.00;;;;;;;18.04;49.55;101594.98;101834;1331;61524;-84
2022/11/10 01:28:33;;;;;;;40.90;28.40;;;;;;;18.05;49.74;101591.07;101860;1332;59273;-85
2022/11/10 01:31:01;;;;;;;38.50;28.90;;;;;;;18.05;49.64;101590.17;101803;1332;61343;-85
2022/11/10 01:33:26;;;;;;;42.20;28.50;;;;;;;18.05;49.71;101590.73;101822;1335;61339;-85
2022/11/10 01:35:52;;;;;;;41.50;29.00;;;;;;;18.04;49.50;101588.23;101826;1333;61339;-85
2022/11/10 01:38:17;;;;;;;44.70;28.40;;;;;;;18.04;49.61;101581.84;101828;1332;62283;-85
2022/11/10 01:40:44;;;;;;;43.60;29.00;;;;;;;18.04;49.48;101585.77;101868;1331;61373;-85
2022/11/10 01:43:10;;;;;;;42.30;29.40;;;;;;;18.04;49.53;101582.03;101818;1330;74615;-85
2022/11/10 01:45:51;;;;;;;41.20;28.90;;;;;;;18.04;49.60;101579.70;101829;1325;61271;-85
2022/11/10 01:48:38;;;;;;;39.50;27.60;;;;;;;18.04;49.52;101575.42;101842;1333;61249;-84
2022/11/10 01:51:26;;;;;;;42.40;29.20;;;;;;;18.04;49.62;101574.20;101825;1338;73750;-84
2022/11/10 01:53:58;;;;;;;43.00;28.10;;;;;;;18.04;49.43;101572.42;101833;1331;75432;-85
2022/11/10 01:56:24;;;;;;;43.30;30.20;;;;;;;18.03;49.48;101574.03;101867;1335;61226;-85
2022/11/10 01:58:53;;;;;;;42.40;30.20;;;;;;;18.04;49.52;101575.78;101814;1334;61354;-86
2022/11/10 02:01:19;;;;;;;43.40;30.00;;;;;;;18.04;49.42;101580.23;101841;1325;73796;-85
2022/11/10 02:03:55;;;;;;;45.50;29.20;;;;;;;18.04;49.42;101576.33;101819;1335;62078;-85
2022/11/10 02:06:23;;;;;;;39.90;28.20;;;;;;;18.04;49.34;101579.20;101822;1334;61312;-85
2022/11/10 02:08:48;;;;;;;39.20;28.50;;;;;;;18.03;49.55;101576.35;101809;1332;61286;-85
2022/11/10 02:11:16;;;;;;;41.70;29.70;;;;;;;18.04;49.37;101577.40;101790;1334;61374;-84
2022/11/10 02:13:41;;;;;;;41.80;28.40;;;;;;;18.03;49.41;101580.27;101801;1332;73561;-86
2022/11/10 02:16:08;;;;;;;41.10;28.40;;;;;;;18.03;49.53;101581.34;101838;1325;61316;-87
2022/11/10 02:18:33;;;;;;;38.00;28.20;;;;;;;18.03;49.41;101582.59;101760;1338;61396;-85
2022/11/10 02:21:02;;;;;;;40.80;29.10;;;;;;;18.03;49.47;101582.21;101826;1337;61338;-85
2022/11/10 02:23:35;;;;;;;38.60;28.60;;;;;;;18.03;49.45;101584.72;101845;1334;61285;-84
2022/11/10 02:26:02;;;;;;;40.10;27.60;;;;;;;18.03;49.39;101585.09;101841;1331;61140;-85
2022/11/10 02:28:29;;;;;;;39.40;27.90;;;;;;;18.03;49.34;101584.02;101834;1334;61331;-84
2022/11/10 02:30:54;;;;;;;37.60;26.60;;;;;;;18.03;49.40;101585.27;101875;1331;71753;-84
2022/11/10 02:33:20;;;;;;;39.40;27.00;;;;;;;18.03;49.40;101587.94;101858;1331;61498;-86
2022/11/10 02:35:46;;;;;;;39.50;27.90;;;;;;;18.02;49.45;101591.01;101836;1339;62063;-85
2022/11/10 02:38:12;;;;;;;41.00;28.50;;;;;;;18.03;49.28;101592.23;101837;1338;61266;-85
2022/11/10 02:40:37;;;;;;;39.60;26.60;;;;;;;18.02;49.30;101591.54;101818;1332;61320;-84
2022/11/10 02:43:10;;;;;;;38.70;28.50;;;;;;;18.02;49.30;101596.20;101816;1338;61345;-84
2022/11/10 02:45:40;;;;;;;42.10;28.50;;;;;;;18.02;49.25;101600.27;101800;1325;75372;-84
2022/11/10 02:48:07;;;;;;;37.40;28.30;;;;;;;18.02;49.31;101601.86;101817;1332;61268;-84
2022/11/10 02:50:33;;;;;;;41.30;27.70;;;;;;;18.02;49.24;101605.08;101775;1339;61166;-84
2022/11/10 02:52:58;;;;;;;40.90;28.30;;;;;;;18.02;49.23;101603.85;101813;1337;61645;-85
2022/11/10 02:55:24;;;;;;;42.30;28.20;;;;;;;18.02;49.47;101600.09;101802;1332;61359;-84
2022/11/10 02:57:50;;;;;;;41.50;28.50;;;;;;;18.02;49.17;101597.79;101770;1324;61748;-85
2022/11/10 03:00:16;;;;;;;40.50;28.30;;;;;;;18.01;49.27;101598.52;101813;1336;61379;-84
2022/11/10 03:02:41;;;;;;;38.80;27.20;;;;;;;18.01;49.22;101600.14;101851;1339;61401;-84
2022/11/10 03:05:07;;;;;;;38.30;27.20;;;;;;;18.01;49.23;101601.02;101848;1333;72598;-85
2022/11/10 03:07:32;;;;;;;39.60;27.90;;;;;;;18.01;49.37;101599.44;101802;1339;61336;-84
2022/11/10 03:09:58;;;;;;;38.20;28.30;;;;;;;18.01;49.30;101600.13;101831;1331;61282;-85
2022/11/10 03:12:23;;;;;;;39.10;25.50;;;;;;;18.01;49.24;101604.95;101822;1339;62555;-84
2022/11/10 03:14:49;;;;;;;37.40;26.90;;;;;;;18.01;49.17;101603.52;101846;1334;61601;-84
2022/11/10 03:17:14;;;;;;;41.70;27.40;;;;;;;18.01;49.22;101603.71;101839;1335;71552;-85
2022/11/10 03:19:40;;;;;;;41.60;28.10;;;;;;;18.01;49.35;101602.46;101829;1338;61341;-85
2022/11/10 03:22:05;;;;;;;40.20;26.90;;;;;;;18.01;49.17;101599.08;101848;1331;61333;-85
2022/11/10 03:24:31;;;;;;;38.10;25.80;;;;;;;18.00;49.12;101599.30;101847;1331;61394;-85
2022/11/10 03:26:56;;;;;;;38.00;27.60;;;;;;;18.01;49.05;101599.63;101819;1337;61325;-85
2022/11/10 03:29:24;;;;;;;40.40;28.20;;;;;;;18.00;49.22;101598.05;101804;1335;72428;-85
2022/11/10 03:31:50;;;;;;;38.30;27.40;;;;;;;18.00;49.20;101599.30;101855;1335;61332;-85
2022/11/10 03:34:15;;;;;;;37.50;27.00;;;;;;;18.00;49.22;101607.13;101839;1329;59339;-85
2022/11/10 03:36:41;;;;;;;41.30;28.10;;;;;;;18.00;49.22;101604.11;101836;1335;61288;-85
2022/11/10 03:39:07;;;;;;;39.60;27.50;;;;;;;18.00;49.15;101603.93;101844;1330;62175;-85
2022/11/10 03:41:33;;;;;;;39.10;27.90;;;;;;;18.00;49.16;101604.82;101745;1334;72521;-85
2022/11/10 03:43:59;;;;;;;40.30;28.10;;;;;;;18.00;48.94;101601.09;101809;1337;75635;-85
2022/11/10 03:46:24;;;;;;;36.90;26.00;;;;;;;18.00;48.96;101601.63;101824;1335;61340;-84
2022/11/10 03:48:50;;;;;;;37.70;25.90;;;;;;;17.99;49.06;101605.92;101818;1339;61349;-84
2022/11/10 03:51:15;;;;;;;37.80;26.90;;;;;;;18.00;49.13;101604.85;101807;1335;61438;-84
2022/11/10 03:53:41;;;;;;;40.70;26.90;;;;;;;18.00;49.16;101606.43;101868;1335;61543;-84
2022/11/10 03:56:06;;;;;;;39.90;26.40;;;;;;;17.99;48.99;101601.48;101942;1336;75875;-84
2022/11/10 03:58:32;;;;;;;36.70;26.90;;;;;;;17.99;48.95;101605.21;102215;1332;61324;-85
2022/11/10 04:00:58;;;;;;;39.70;27.40;;;;;;;17.99;49.01;101600.94;101791;1325;61393;-84
2022/11/10 04:03:23;;;;;;;38.70;25.70;;;;;;;17.99;48.91;101605.02;101834;1335;61760;-85
2022/11/10 04:16:48;;;;;;;38.70;26.70;;;;;;;17.99;48.88;101610.59;101770;1331;74657;-84
2022/11/10 04:19:13;;;;;;;36.60;26.40;;;;;;;17.98;48.82;101611.50;101733;1333;61349;-84
2022/11/10 04:21:39;;;;;;;39.60;26.80;;;;;;;17.98;48.79;101618.99;101815;1337;61359;-84
2022/11/10 04:24:05;;;;;;;36.60;26.60;;;;;;;17.98;48.91;101620.77;101799;1331;62025;-84
2022/11/10 04:26:32;;;;;;;37.70;25.80;;;;;;;17.98;48.84;101620.41;101837;1331;61174;-85
2022/11/10 04:29:24;;;;;;;38.80;27.40;;;;;;;17.97;48.81;101617.40;101847;1334;61373;-85
2022/11/10 04:31:49;;;;;;;38.50;26.30;;;;;;;17.97;48.87;101617.42;101596;1338;61221;-85
2022/11/10 04:34:15;;;;;;;41.90;27.60;;;;;;;17.98;48.82;101622.22;101572;1339;61349;-85
2022/11/10 04:36:44;;;;;;;37.80;24.90;;;;;;;17.97;48.73;101621.00;101574;1341;61311;-85
2022/11/10 04:39:10;;;;;;;38.50;27.00;;;;;;;17.97;48.66;101623.68;101700;1336;61303;-84
2022/11/10 04:41:35;;;;;;;42.10;28.00;;;;;;;17.97;48.60;101624.56;101627;1344;61338;-85
2022/11/10 04:44:01;;;;;;;33.10;24.00;;;;;;;17.97;48.60;101625.11;101703;1341;61366;-85
2022/11/10 04:46:29;;;;;;;36.60;24.80;;;;;;;17.96;48.68;101621.02;101572;1338;61370;-84
2022/11/10 04:48:55;;;;;;;38.00;24.20;;;;;;;17.96;48.68;101621.74;101602;1342;61298;-84
2022/11/10 04:51:31;;;;;;;40.90;26.70;;;;;;;17.96;48.67;101627.27;101665;1336;61326;-85
2022/11/10 04:53:57;;;;;;;39.00;26.30;;;;;;;17.97;48.59;101632.42;101605;1336;73586;-84
2022/11/10 04:56:23;;;;;;;31.40;22.50;;;;;;;17.97;48.53;101629.55;101575;1341;61409;-84
2022/11/10 04:58:49;;;;;;;33.70;24.10;;;;;;;17.97;48.57;101632.75;101592;1337;61389;-84
2022/11/10 05:01:16;;;;;;;34.00;24.30;;;;;;;17.97;48.49;101634.02;101593;1338;61381;-84
2022/11/10 05:03:42;;;;;;;33.30;25.00;;;;;;;17.97;48.37;101629.73;101614;1343;61333;-84
2022/11/10 05:06:08;;;;;;;36.10;25.20;;;;;;;17.97;48.38;101633.63;101581;1337;61347;-84
2022/11/10 05:08:34;;;;;;;33.50;23.40;;;;;;;17.97;48.38;101632.39;101636;1336;61635;-85
2022/11/10 05:11:00;;;;;;;36.00;24.30;;;;;;;17.97;48.37;101631.30;101823;1338;61413;-84
2022/11/10 05:13:26;;;;;;;29.20;21.10;;;;;;;17.97;48.42;101635.93;101832;1331;61424;-84
2022/11/10 05:15:52;;;;;;;32.60;23.60;;;;;;;17.98;48.38;101640.56;101861;1332;61823;-84
2022/11/10 05:18:17;;;;;;;29.60;21.30;;;;;;;17.98;48.36;101641.97;101815;1338;75473;-84
2022/11/10 05:20:43;;;;;;;31.20;22.00;;;;;;;17.97;48.38;101642.20;101760;1335;61333;-84
2022/11/10 05:25:54;;;;;;;32.10;23.40;;;;;;;17.92;48.19;101645.79;101806;1339;73556;-85
2022/11/10 05:28:19;;;;;;;34.90;24.20;;;;;;;17.89;48.11;101645.53;101552;1323;75430;-85
2022/11/10 05:30:47;;;;;;;39.00;26.70;;;;;;;17.87;48.02;101648.66;101581;1318;61484;-85
2022/11/10 05:33:13;;;;;;;37.80;25.40;;;;;;;17.84;48.06;101653.41;101746;1321;61339;-85
2022/11/10 05:35:38;;;;;;;35.70;26.00;;;;;;;17.82;47.93;101654.56;101638;1323;61348;-85
2022/11/10 05:38:05;;;;;;;37.90;25.10;;;;;;;17.80;47.88;101655.35;101602;1325;61275;-85
2022/11/10 05:40:30;;;;;;;35.20;23.70;;;;;;;17.78;47.87;101661.48;101530;1329;60201;-83
2022/11/10 05:42:57;;;;;;;39.10;25.90;;;;;;;17.76;47.81;101666.58;101507;1328;61429;-83
2022/11/10 05:45:24;;;;;;;44.50;26.40;;;;;;;17.72;47.77;101667.45;101440;1320;61435;-84
2022/11/10 05:47:49;;;;;;;43.90;26.20;;;;;;;17.69;47.63;101669.39;101478;1323;61464;-84
2022/11/10 05:50:15;;;;;;;41.00;25.70;;;;;;;17.67;47.49;101671.08;100930;1318;630462;-83
2022/11/10 05:52:45;;;;;;;36.60;25.00;;;;;;;17.56;47.22;101674.72;101469;1319;59457;-84
2022/11/10 05:55:11;;;;;;;43.20;27.50;;;;;;;17.45;47.18;101676.98;101300;1321;72416;-83
2022/11/10 05:57:37;;;;;;;42.20;26.80;;;;;;;17.42;47.19;101679.93;101231;1321;61297;-83
2022/11/10 06:00:03;;;;;;;47.00;26.10;;;;;;;17.41;47.07;101678.18;101061;1322;61636;-83
2022/11/10 06:02:29;;;;;;;40.50;27.30;;;;;;;17.40;47.14;101682.70;101069;1323;61304;-83
2022/11/10 06:04:55;;;;;;;40.70;25.90;;;;;;;17.39;46.99;101684.17;101249;1321;61824;-84
2022/11/10 06:07:20;;;;;;;43.90;28.40;;;;;;;17.41;47.01;101691.35;101227;1320;61353;-83
2022/11/10 06:09:47;;;;;;;40.60;24.50;;;;;;;17.42;46.94;101696.11;101272;1318;61417;-81
2022/11/10 06:12:13;;;;;;;38.30;24.70;;;;;;;17.46;47.01;101698.98;101226;1320;61369;-83
2022/11/10 06:14:40;;;;;;;40.50;25.70;;;;;;;17.50;47.01;101700.26;101304;1321;61321;-83
2022/11/10 06:17:06;;;;;;;41.30;25.50;;;;;;;17.54;47.02;101702.93;101445;1321;71720;-85
2022/11/10 06:19:31;;;;;;;42.80;26.70;;;;;;;17.57;46.85;101706.70;101243;1320;61404;-85
2022/11/10 06:21:57;;;;;;;42.90;24.70;;;;;;;17.62;47.00;101712.92;101418;1320;61352;-84
2022/11/10 06:24:22;;;;;;;42.70;26.10;;;;;;;17.66;46.98;101717.94;101506;1329;61333;-84
2022/11/10 06:26:48;;;;;;;46.20;27.10;;;;;;;17.68;46.72;101719.81;101312;1321;61387;-82
2022/11/10 06:29:15;;;;;;;50.00;26.90;;;;;;;17.69;46.70;101718.13;101284;1313;73446;-84
2022/11/10 06:31:40;;;;;;;40.50;26.00;;;;;;;17.70;46.71;101716.70;101348;1323;74502;-83
2022/11/10 06:34:06;;;;;;;46.20;26.60;;;;;;;17.70;46.62;101718.47;101383;1312;61410;-83
2022/11/10 06:36:33;;;;;;;49.80;26.50;;;;;;;17.70;46.70;101719.71;101471;1324;61774;-84
2022/11/10 06:38:58;;;;;;;47.00;26.10;;;;;;;17.69;46.62;101717.97;101472;1322;61271;-83
2022/11/10 06:41:25;;;;;;;44.40;25.90;;;;;;;17.69;46.63;101714.77;101246;1323;61386;-83
2022/11/10 06:43:50;;;;;;;49.60;28.30;;;;;;;17.71;46.54;101721.80;101260;1315;61425;-84
2022/11/10 06:46:16;;;;;;;55.10;28.00;;;;;;;17.73;46.73;101722.60;101221;1319;61428;-83
2022/11/10 06:48:43;;;;;;;49.40;25.50;;;;;;;17.75;46.79;101724.99;101651;1318;61436;-83
2022/11/10 06:51:10;;;;;;;57.90;28.10;;;;;;;17.78;46.83;101726.48;101299;1315;72558;-84
2022/11/10 06:53:36;;;;;;;54.60;25.10;;;;;;;17.79;46.78;101726.45;101358;1318;75598;-84
2022/11/10 06:56:03;;;;;;;51.70;26.60;;;;;;;17.76;46.83;101728.00;101490;1323;61316;-84
2022/11/10 06:58:28;;;;;;;49.20;26.80;;;;;;;17.66;46.77;101726.63;101384;1312;61789;-85
2022/11/10 07:01:18;;;;;;;59.30;26.70;;;;;;;17.57;46.90;101722.76;101217;1321;61836;-87
2022/11/10 07:03:44;;;;;;;61.50;26.60;;;;;;;17.52;47.23;101724.91;100851;1328;74676;-85
2022/11/10 07:06:09;;;;;;;54.80;27.90;;;;;;;17.50;47.59;101725.19;100606;1330;61510;-85
2022/11/10 07:08:36;;;;;;;58.00;29.10;;;;;;;17.52;47.54;101729.71;100890;1325;61397;-86
2022/11/10 07:11:02;;;;;;;54.10;27.10;;;;;;;17.53;47.55;101729.87;100942;1325;61519;-85
2022/11/10 07:13:27;;;;;;;51.80;27.90;;;;;;;17.55;47.63;101734.05;100873;1327;61343;-82
2022/11/10 07:15:53;;;;;;;55.80;28.20;;;;;;;17.58;47.81;101733.02;100965;1328;61472;-81
2022/11/10 07:18:18;;;;;;;55.00;28.50;;;;;;;17.61;47.97;101736.44;100964;1326;61496;-84
2022/11/10 07:20:45;;;;;;;39.80;21.70;;;;;;;17.65;48.00;101736.32;100948;1325;61637;-84
2022/11/10 07:23:10;;;;;;;48.30;21.80;;;;;;;17.69;48.06;101738.29;100860;1321;61208;-84
2022/11/10 07:25:36;;;;;;;39.20;20.90;;;;;;;17.73;48.08;101738.98;100928;1318;61490;-84
2022/11/10 07:28:06;;;;;;;37.50;21.20;;;;;;;17.77;48.03;101739.17;100887;1322;61369;-81
2022/11/10 07:30:33;;;;;;;42.20;20.80;;;;;;;17.81;48.11;101736.69;101056;1329;61244;-80
2022/11/10 07:33:04;;;;;;;41.20;20.40;;;;;;;17.85;48.03;101734.57;100867;1324;72624;-80
2022/11/10 07:35:32;;;;;;;40.70;21.40;;;;;;;17.89;48.09;101729.58;101464;1324;74863;-80
2022/11/10 07:38:01;;;;;;;49.20;24.20;;;;;;;17.93;47.99;101733.20;101430;1326;61330;-80
2022/11/10 07:40:27;;;;;;;56.70;22.10;;;;;;;17.96;48.04;101735.57;101459;1320;60615;-80
2022/11/10 07:42:52;;;;;;;39.90;20.90;;;;;;;17.98;48.20;101737.95;101717;1323;61411;-79
2022/11/10 07:45:18;;;;;;;47.90;22.70;;;;;;;18.00;48.21;101740.19;101430;1319;60224;-79
2022/11/10 07:47:43;;;;;;;50.70;22.00;;;;;;;18.03;48.19;101739.19;101372;1323;62824;-80
2022/11/10 07:50:09;;;;;;;43.50;22.00;;;;;;;18.05;48.33;101740.52;101637;1329;59746;-80
2022/11/10 07:52:35;;;;;;;39.00;21.50;;;;;;;18.00;48.02;101737.52;101473;1320;61393;-81
2022/11/10 07:55:00;;;;;;;36.50;22.20;;;;;;;17.85;47.86;101737.95;101503;1322;61409;-80
2022/11/10 07:57:26;;;;;;;43.90;21.40;;;;;;;17.77;47.81;101740.77;101485;1318;61416;-81
2022/11/10 07:59:51;;;;;;;49.10;21.90;;;;;;;17.76;47.86;101740.30;101808;1321;59729;-82
2022/11/10 08:02:17;;;;;;;42.00;21.00;;;;;;;17.74;47.85;101742.31;101916;1312;61330;-81
2022/11/10 08:04:43;;;;;;;41.80;21.40;;;;;;;17.73;48.13;101745.55;101857;1319;60201;-80
2022/11/10 08:07:08;;;;;;;40.80;21.30;;;;;;;17.70;48.20;101745.71;102668;1332;59414;-81
2022/11/10 08:09:34;;;;;;;39.20;22.30;;;;;;;17.69;48.18;101746.11;102686;1333;60380;-83
2022/11/10 08:11:59;;;;;;;39.40;21.60;;;;;;;17.66;48.17;101750.50;102626;1336;59575;-81
2022/11/10 08:14:26;;;;;;;45.80;21.80;;;;;;;17.61;48.31;101751.05;101486;1315;61390;-80
2022/11/10 08:16:52;;;;;;;43.90;21.90;;;;;;;17.63;48.78;101749.40;101890;1321;59419;-81
2022/11/10 08:19:17;;;;;;;47.60;21.70;;;;;;;17.65;48.66;101748.40;101807;1324;61418;-81
2022/11/10 08:21:43;;;;;;;38.50;23.10;;;;;;;17.63;48.46;101747.07;101728;1315;74825;-84
2022/11/10 08:24:08;;;;;;;40.00;22.70;;;;;;;17.59;48.34;101745.63;101667;1324;61351;-81
2022/11/10 08:26:34;;;;;;;43.00;23.90;;;;;;;17.53;48.34;101747.47;101641;1324;61432;-81
2022/11/10 08:28:59;;;;;;;45.10;23.50;;;;;;;17.50;48.19;101749.76;101796;1320;61336;-81
2022/11/10 08:31:25;;;;;;;37.40;24.00;;;;;;;17.42;48.05;101748.45;101815;1315;59344;-81
2022/11/10 08:33:50;;;;;;;40.50;22.40;;;;;;;17.35;48.07;101751.78;101805;1325;73349;-81
2022/11/10 08:36:16;;;;;;;45.00;24.20;;;;;;;17.36;48.46;101752.27;101813;1317;61327;-81
2022/11/10 08:38:42;;;;;;;39.10;23.20;;;;;;;17.37;48.54;101754.15;101781;1323;61341;-81
2022/11/10 08:41:07;;;;;;;46.00;23.90;;;;;;;17.31;48.27;101753.52;101734;1323;61307;-81
2022/11/10 08:43:33;;;;;;;36.70;23.10;;;;;;;17.17;48.29;101757.82;101764;1323;62464;-81
2022/11/10 08:46:00;;;;;;;43.20;24.00;;;;;;;17.11;48.35;101755.90;101833;1323;61203;-82
2022/11/10 08:48:26;;;;;;;38.70;22.80;;;;;;;17.08;48.40;101752.48;101721;1326;61421;-82
2022/11/10 08:50:51;;;;;;;45.00;22.80;;;;;;;17.07;48.49;101753.20;101743;1321;59662;-82
2022/11/10 08:53:20;;;;;;;32.30;22.40;;;;;;;17.08;48.52;101755.66;101874;1332;59557;-82
2022/11/10 08:55:46;;;;;;;42.10;22.00;;;;;;;17.10;48.61;101750.77;101714;1315;75901;-81
2022/11/10 08:58:16;;;;;;;39.40;23.60;;;;;;;17.07;48.52;101749.99;101724;1320;61293;-81
2022/11/10 09:00:41;;;;;;;36.20;21.50;;;;;;;17.07;48.51;101751.59;101785;1316;61223;-82
2022/11/10 09:03:27;;;;;;;30.20;20.00;;;;;;;17.11;48.60;101750.94;101890;1322;61303;-81
2022/11/10 09:05:53;;;;;;;40.10;20.00;;;;;;;17.10;48.51;101748.84;101390;1315;76494;-81
2022/11/10 09:08:18;;;;;;;29.50;19.60;;;;;;;17.10;48.57;101746.86;101445;1320;61391;-81
2022/11/10 09:10:46;;;;;;;32.00;19.50;;;;;;;17.12;48.76;101745.04;101308;1315;61443;-81
2022/11/10 09:13:12;;;;;;;37.10;19.00;;;;;;;17.18;48.80;101745.88;101964;1321;62593;-82
2022/11/10 09:15:38;;;;;;;36.60;19.60;;;;;;;17.21;48.82;101747.67;101848;1329;59660;-82
2022/11/10 09:18:05;;;;;;;39.40;20.80;;;;;;;17.23;48.84;101748.86;101779;1316;61799;-82
2022/11/10 09:20:31;;;;;;;28.40;18.10;;;;;;;17.26;48.87;101749.80;101909;1328;61352;-82
2022/11/10 09:23:12;;;;;;;35.80;21.60;;;;;;;17.33;49.02;101749.38;101804;1320;59347;-81
2022/11/10 09:25:38;;;;;;;34.10;22.20;;;;;;;17.35;48.91;101752.48;102746;1335;74714;-82
2022/11/10 09:28:03;;;;;;;32.90;21.40;;;;;;;17.34;48.79;101752.14;102486;1331;59386;-81
2022/11/10 09:30:29;;;;;;;32.70;20.90;;;;;;;17.38;48.96;101752.90;102681;1332;59475;-81
2022/11/10 09:32:55;;;;;;;36.10;21.40;;;;;;;17.45;49.09;101753.49;102817;1320;59712;-81
2022/11/10 09:35:21;;;;;;;37.70;21.00;;;;;;;17.52;49.20;101752.13;102600;1330;60428;-81
2022/11/10 09:37:46;;;;;;;30.30;20.70;;;;;;;17.59;49.20;101756.64;102685;1327;60113;-81
2022/11/10 09:40:54;;;;;;;34.50;20.70;;;;;;;17.66;49.40;101755.14;102045;1323;61330;-81
2022/11/10 09:43:28;;;;;;;30.10;19.60;;;;;;;17.72;49.28;101757.19;101807;1330;61345;-81
2022/11/10 09:45:54;;;;;;;34.30;20.60;;;;;;;17.78;49.25;101759.25;101891;1314;71789;-81
2022/11/10 09:48:30;;;;;;;39.40;20.20;;;;;;;17.83;49.32;101758.88;101795;1323;61337;-82
2022/11/10 09:50:58;;;;;;;35.60;21.00;;;;;;;17.87;49.53;101755.85;101971;1312;61263;-81
2022/11/10 09:53:27;;;;;;;39.00;20.20;;;;;;;17.90;49.62;101758.02;102150;1320;61364;-81
2022/11/10 09:55:55;;;;;;;35.50;20.30;;;;;;;17.94;49.68;101755.06;101751;1320;73748;-81
2022/11/10 09:58:22;;;;;;;33.30;20.90;;;;;;;17.97;49.75;101752.45;101798;1323;74835;-80
2022/11/10 10:00:51;;;;;;;40.40;20.40;;;;;;;18.00;49.83;101749.27;102050;1321;61034;-81
2022/11/10 10:03:22;;;;;;;33.50;19.80;;;;;;;18.03;49.79;101747.02;101816;1323;62710;-80
2022/11/10 10:06:08;;;;;;;38.00;20.70;;;;;;;17.98;49.61;101741.15;101922;1323;72881;-81
2022/11/10 10:09:03;;;;;;;48.10;22.00;;;;;;;17.90;49.53;101741.30;102525;1327;75052;-81
2022/11/10 10:11:42;;;;;;;42.30;21.90;;;;;;;17.84;49.45;101737.63;102621;1320;61606;-81
2022/11/10 10:14:23;;;;;;;44.00;21.70;;;;;;;17.80;49.24;101736.91;102022;1314;61123;-81
2022/11/10 10:16:48;;;;;;;36.10;20.80;;;;;;;17.78;49.31;101735.76;101975;1320;73680;-81
2022/11/10 10:19:23;;;;;;;36.00;20.60;;;;;;;17.71;49.06;101735.89;101876;1321;61533;-81
2022/11/10 10:22:01;;;;;;;33.40;20.60;;;;;;;17.60;49.07;101734.01;101961;1322;60244;-81
2022/11/10 10:24:29;;;;;;;46.50;20.20;;;;;;;17.47;48.96;101730.46;101976;1323;61395;-81
2022/11/10 10:26:55;;;;;;;36.20;20.50;;;;;;;17.43;48.88;101732.39;101616;1316;73576;-81
2022/11/10 10:29:23;;;;;;;37.20;19.30;;;;;;;17.39;48.95;101729.16;101761;1322;75474;-81
2022/11/10 10:31:50;;;;;;;40.70;19.40;;;;;;;17.38;48.86;101726.54;101764;1320;61332;-80
2022/11/10 10:34:17;;;;;;;34.50;18.20;;;;;;;17.35;48.92;101729.67;102753;1331;60436;-81
2022/11/10 10:36:44;;;;;;;31.50;18.50;;;;;;;17.41;49.09;101725.36;102398;1331;74034;-80
2022/11/10 10:39:21;;;;;;;39.00;19.90;;;;;;;17.49;49.30;101725.02;101813;1323;61176;-80
2022/11/10 10:41:47;;;;;;;33.30;17.30;;;;;;;17.55;49.23;101723.17;101487;1315;61230;-84
2022/11/10 10:44:15;;;;;;;35.00;19.20;;;;;;;17.58;49.10;101723.57;101332;1322;61311;-82
2022/11/10 10:46:50;;;;;;;33.50;17.50;;;;;;;17.60;49.10;101722.09;101756;1325;73642;-83
2022/11/10 10:49:23;;;;;;;29.40;16.60;;;;;;;17.59;49.00;101721.58;101762;1328;75844;-83
2022/11/10 10:52:12;;;;;;;32.80;17.40;;;;;;;17.64;48.97;101719.81;101747;1322;61453;-83
2022/11/10 10:54:38;;;;;;;40.00;19.20;;;;;;;17.69;49.15;101714.42;101743;1331;61744;-81
2022/11/10 10:57:24;;;;;;;32.80;17.80;;;;;;;17.72;48.95;101714.82;101715;1322;61318;-81
2022/11/10 10:59:50;;;;;;;40.60;18.60;;;;;;;17.74;48.92;101716.85;101747;1316;74652;-81
2022/11/10 11:02:27;;;;;;;35.50;18.00;;;;;;;17.78;49.03;101717.59;101829;1322;59771;-81
2022/11/10 11:05:15;;;;;;;32.70;18.30;;;;;;;17.82;48.85;101715.27;101603;1321;60324;-82
2022/11/10 11:07:40;;;;;;;26.90;16.20;;;;;;;17.84;48.88;101713.77;101664;1323;72826;-83
2022/11/10 11:10:22;;;;;;;28.70;16.30;;;;;;;17.82;48.73;101709.23;102033;1322;60775;-80
2022/11/10 11:12:49;;;;;;;37.90;17.80;;;;;;;17.77;48.58;101708.17;102065;1320;60912;-81
2022/11/10 11:15:27;;;;;;;26.40;17.20;;;;;;;17.76;48.66;101703.61;101964;1332;61055;-81
2022/11/10 11:18:00;;;;;;;29.10;17.40;;;;;;;17.82;48.74;101701.02;102375;1329;73513;-81
2022/11/10 11:20:36;;;;;;;31.90;16.70;;;;;;;17.88;48.91;101703.80;102697;1336;74446;-82